sensor_id;sensor_type;location;lat;lon;timestamp;P1;durP1;ratioP1;P2;durP2;ratioP2
40286;SDS011;25998;46.604;13.610;2023-04-03T00:00:07;1.02;;;0.60;;
40286;SDS011;25998;46.604;13.610;2023-04-03T00:03:18;2.67;;;0.60;;
40286;SDS011;25998;46.604;13.610;2023-04-03T00:06:30;0.88;;;0.68;;
40286;SDS011;25998;46.604;13.610;2023-04-03T00:09:41;0.68;;;0.40;;
40286;SDS011;25998;46.604;13.610;2023-04-03T00:12:51;0.80;;;0.50;;
40286;SDS011;25998;46.604;13.610;2023-04-03T00:16:02;0.77;;;0.57;;
40286;SDS011;25998;46.604;13.610;2023-04-03T00:19:13;0.70;;;0.50;;
40286;SDS011;25998;46.604;13.610;2023-04-03T00:22:24;0.63;;;0.57;;
40286;SDS011;25998;46.604;13.610;2023-04-03T00:25:36;1.58;;;0.68;;
40286;SDS011;25998;46.604;13.610;2023-04-03T00:28:47;0.70;;;0.50;;
40286;SDS011;25998;46.604;13.610;2023-04-03T00:31:58;0.60;;;0.40;;
40286;SDS011;25998;46.604;13.610;2023-04-03T00:35:09;0.85;;;0.50;;
40286;SDS011;25998;46.604;13.610;2023-04-03T00:38:20;0.90;;;0.50;;
40286;SDS011;25998;46.604;13.610;2023-04-03T00:41:31;0.95;;;0.60;;
40286;SDS011;25998;46.604;13.610;2023-04-03T00:47:54;0.73;;;0.47;;
40286;SDS011;25998;46.604;13.610;2023-04-03T00:51:06;1.15;;;0.47;;
40286;SDS011;25998;46.604;13.610;2023-04-03T00:54:19;1.08;;;0.47;;
40286;SDS011;25998;46.604;13.610;2023-04-03T00:57:30;0.40;;;0.40;;
40286;SDS011;25998;46.604;13.610;2023-04-03T01:00:43;0.68;;;0.52;;
40286;SDS011;25998;46.604;13.610;2023-04-03T01:03:58;1.25;;;0.50;;
40286;SDS011;25998;46.604;13.610;2023-04-03T01:07:15;1.08;;;0.60;;
40286;SDS011;25998;46.604;13.610;2023-04-03T01:10:35;1.33;;;0.60;;
40286;SDS011;25998;46.604;13.610;2023-04-03T01:13:46;0.73;;;0.50;;
40286;SDS011;25998;46.604;13.610;2023-04-03T01:16:58;0.43;;;0.30;;
40286;SDS011;25998;46.604;13.610;2023-04-03T01:26:55;1.70;;;0.93;;
40286;SDS011;25998;46.604;13.610;2023-04-03T01:30:06;0.55;;;0.50;;
40286;SDS011;25998;46.604;13.610;2023-04-03T01:33:18;0.45;;;0.43;;
40286;SDS011;25998;46.604;13.610;2023-04-03T01:36:30;0.68;;;0.55;;
40286;SDS011;25998;46.604;13.610;2023-04-03T01:39:41;1.92;;;0.70;;
40286;SDS011;25998;46.604;13.610;2023-04-03T01:42:52;0.52;;;0.50;;
40286;SDS011;25998;46.604;13.610;2023-04-03T01:46:03;0.65;;;0.57;;
40286;SDS011;25998;46.604;13.610;2023-04-03T01:49:14;0.90;;;0.65;;
40286;SDS011;25998;46.604;13.610;2023-04-03T01:52:25;0.68;;;0.63;;
40286;SDS011;25998;46.604;13.610;2023-04-03T01:55:35;0.77;;;0.55;;
40286;SDS011;25998;46.604;13.610;2023-04-03T01:58:46;2.08;;;0.70;;
40286;SDS011;25998;46.604;13.610;2023-04-03T02:01:57;0.82;;;0.63;;
40286;SDS011;25998;46.604;13.610;2023-04-03T02:05:08;0.88;;;0.70;;
40286;SDS011;25998;46.604;13.610;2023-04-03T02:08:19;0.80;;;0.68;;
40286;SDS011;25998;46.604;13.610;2023-04-03T02:11:30;0.80;;;0.57;;
40286;SDS011;25998;46.604;13.610;2023-04-03T02:14:41;0.77;;;0.60;;
40286;SDS011;25998;46.604;13.610;2023-04-03T02:17:52;0.77;;;0.68;;
40286;SDS011;25998;46.604;13.610;2023-04-03T02:21:02;0.70;;;0.70;;
40286;SDS011;25998;46.604;13.610;2023-04-03T02:24:14;0.47;;;0.40;;
40286;SDS011;25998;46.604;13.610;2023-04-03T02:27:25;0.50;;;0.50;;
40286;SDS011;25998;46.604;13.610;2023-04-03T02:30:36;1.63;;;0.50;;
40286;SDS011;25998;46.604;13.610;2023-04-03T02:33:47;1.17;;;0.55;;
40286;SDS011;25998;46.604;13.610;2023-04-03T02:36:58;1.65;;;0.50;;
40286;SDS011;25998;46.604;13.610;2023-04-03T02:40:09;2.90;;;0.70;;
40286;SDS011;25998;46.604;13.610;2023-04-03T02:43:21;1.45;;;0.50;;
40286;SDS011;25998;46.604;13.610;2023-04-03T02:46:32;0.65;;;0.50;;
40286;SDS011;25998;46.604;13.610;2023-04-03T02:49:43;3.22;;;0.80;;
40286;SDS011;25998;46.604;13.610;2023-04-03T02:52:56;1.10;;;0.60;;
40286;SDS011;25998;46.604;13.610;2023-04-03T02:56:06;8.90;;;1.65;;
40286;SDS011;25998;46.604;13.610;2023-04-03T02:59:17;12.80;;;2.17;;
40286;SDS011;25998;46.604;13.610;2023-04-03T03:02:28;5.82;;;1.52;;
40286;SDS011;25998;46.604;13.610;2023-04-03T03:05:39;12.80;;;2.13;;
40286;SDS011;25998;46.604;13.610;2023-04-03T03:08:50;2.97;;;0.85;;
40286;SDS011;25998;46.604;13.610;2023-04-03T03:12:00;2.05;;;0.73;;
40286;SDS011;25998;46.604;13.610;2023-04-03T03:15:11;11.73;;;2.05;;
40286;SDS011;25998;46.604;13.610;2023-04-03T03:18:22;7.78;;;1.63;;
40286;SDS011;25998;46.604;13.610;2023-04-03T03:21:33;12.80;;;1.40;;
40286;SDS011;25998;46.604;13.610;2023-04-03T03:24:44;6.60;;;1.20;;
40286;SDS011;25998;46.604;13.610;2023-04-03T03:27:55;7.80;;;1.80;;
40286;SDS011;25998;46.604;13.610;2023-04-03T03:31:06;1.58;;;1.15;;
40286;SDS011;25998;46.604;13.610;2023-04-03T03:34:18;1.55;;;0.80;;
40286;SDS011;25998;46.604;13.610;2023-04-03T03:37:29;0.70;;;0.70;;
40286;SDS011;25998;46.604;13.610;2023-04-03T03:40:40;1.20;;;0.75;;
40286;SDS011;25998;46.604;13.610;2023-04-03T03:43:51;1.95;;;0.70;;
40286;SDS011;25998;46.604;13.610;2023-04-03T03:47:02;2.50;;;1.00;;
40286;SDS011;25998;46.604;13.610;2023-04-03T03:50:13;1.30;;;0.90;;
40286;SDS011;25998;46.604;13.610;2023-04-03T03:53:23;4.75;;;1.27;;
40286;SDS011;25998;46.604;13.610;2023-04-03T03:56:34;1.77;;;0.90;;
40286;SDS011;25998;46.604;13.610;2023-04-03T03:59:45;2.08;;;0.80;;
40286;SDS011;25998;46.604;13.610;2023-04-03T04:02:57;1.23;;;0.80;;
40286;SDS011;25998;46.604;13.610;2023-04-03T04:06:08;1.65;;;0.88;;
40286;SDS011;25998;46.604;13.610;2023-04-03T04:09:19;2.35;;;0.80;;
40286;SDS011;25998;46.604;13.610;2023-04-03T04:12:30;1.73;;;1.00;;
40286;SDS011;25998;46.604;13.610;2023-04-03T04:15:41;2.63;;;0.90;;
40286;SDS011;25998;46.604;13.610;2023-04-03T04:18:53;1.92;;;0.93;;
40286;SDS011;25998;46.604;13.610;2023-04-03T04:22:04;1.27;;;0.85;;
40286;SDS011;25998;46.604;13.610;2023-04-03T04:25:15;1.55;;;0.90;;
40286;SDS011;25998;46.604;13.610;2023-04-03T04:28:26;2.08;;;0.90;;
40286;SDS011;25998;46.604;13.610;2023-04-03T04:31:37;1.25;;;0.80;;
40286;SDS011;25998;46.604;13.610;2023-04-03T04:34:47;1.25;;;0.88;;
40286;SDS011;25998;46.604;13.610;2023-04-03T04:37:58;0.82;;;0.70;;
40286;SDS011;25998;46.604;13.610;2023-04-03T04:41:09;3.33;;;0.90;;
40286;SDS011;25998;46.604;13.610;2023-04-03T04:44:20;1.63;;;0.90;;
40286;SDS011;25998;46.604;13.610;2023-04-03T04:47:31;8.00;;;2.05;;
40286;SDS011;25998;46.604;13.610;2023-04-03T04:50:42;6.75;;;1.65;;
40286;SDS011;25998;46.604;13.610;2023-04-03T04:53:53;3.78;;;1.40;;
40286;SDS011;25998;46.604;13.610;2023-04-03T04:57:03;20.05;;;3.55;;
40286;SDS011;25998;46.604;13.610;2023-04-03T05:00:14;12.32;;;1.77;;
40286;SDS011;25998;46.604;13.610;2023-04-03T05:03:26;7.65;;;1.60;;
40286;SDS011;25998;46.604;13.610;2023-04-03T05:06:37;8.10;;;1.80;;
40286;SDS011;25998;46.604;13.610;2023-04-03T05:09:48;10.73;;;1.88;;
40286;SDS011;25998;46.604;13.610;2023-04-03T05:12:59;6.03;;;1.65;;
40286;SDS011;25998;46.604;13.610;2023-04-03T05:16:10;4.45;;;1.42;;
40286;SDS011;25998;46.604;13.610;2023-04-03T05:19:21;5.05;;;1.63;;
40286;SDS011;25998;46.604;13.610;2023-04-03T05:22:32;15.77;;;2.22;;
40286;SDS011;25998;46.604;13.610;2023-04-03T05:25:43;5.00;;;1.75;;
40286;SDS011;25998;46.604;13.610;2023-04-03T05:28:55;6.15;;;1.60;;
40286;SDS011;25998;46.604;13.610;2023-04-03T05:32:06;5.15;;;1.15;;
40286;SDS011;25998;46.604;13.610;2023-04-03T05:35:17;21.63;;;3.65;;
40286;SDS011;25998;46.604;13.610;2023-04-03T05:38:28;9.98;;;1.58;;
40286;SDS011;25998;46.604;13.610;2023-04-03T05:41:39;2.78;;;1.67;;
40286;SDS011;25998;46.604;13.610;2023-04-03T05:44:49;2.40;;;1.15;;
40286;SDS011;25998;46.604;13.610;2023-04-03T05:48:00;2.08;;;1.10;;
40286;SDS011;25998;46.604;13.610;2023-04-03T05:51:33;2.53;;;1.30;;
40286;SDS011;25998;46.604;13.610;2023-04-03T05:54:45;2.88;;;1.50;;
40286;SDS011;25998;46.604;13.610;2023-04-03T05:57:58;2.00;;;1.10;;
40286;SDS011;25998;46.604;13.610;2023-04-03T06:01:08;3.53;;;1.40;;
40286;SDS011;25998;46.604;13.610;2023-04-03T06:04:19;2.20;;;1.10;;
40286;SDS011;25998;46.604;13.610;2023-04-03T06:07:31;2.63;;;1.45;;
40286;SDS011;25998;46.604;13.610;2023-04-03T06:10:42;1.92;;;1.10;;
40286;SDS011;25998;46.604;13.610;2023-04-03T06:13:52;2.95;;;1.63;;
40286;SDS011;25998;46.604;13.610;2023-04-03T06:17:04;3.05;;;1.17;;
40286;SDS011;25998;46.604;13.610;2023-04-03T06:20:15;2.40;;;1.60;;
40286;SDS011;25998;46.604;13.610;2023-04-03T06:23:26;4.28;;;1.70;;
40286;SDS011;25998;46.604;13.610;2023-04-03T06:26:37;2.20;;;1.33;;
40286;SDS011;25998;46.604;13.610;2023-04-03T06:29:47;3.95;;;1.50;;
40286;SDS011;25998;46.604;13.610;2023-04-03T06:32:59;8.02;;;2.08;;
40286;SDS011;25998;46.604;13.610;2023-04-03T06:36:10;2.58;;;1.30;;
40286;SDS011;25998;46.604;13.610;2023-04-03T06:39:22;3.58;;;1.55;;
40286;SDS011;25998;46.604;13.610;2023-04-03T06:42:33;5.32;;;1.65;;
40286;SDS011;25998;46.604;13.610;2023-04-03T06:45:44;1.58;;;1.23;;
40286;SDS011;25998;46.604;13.610;2023-04-03T06:48:55;2.78;;;1.55;;
40286;SDS011;25998;46.604;13.610;2023-04-03T06:52:06;4.18;;;1.38;;
40286;SDS011;25998;46.604;13.610;2023-04-03T06:55:17;2.45;;;1.20;;
40286;SDS011;25998;46.604;13.610;2023-04-03T06:58:28;1.73;;;1.10;;
40286;SDS011;25998;46.604;13.610;2023-04-03T07:01:39;2.25;;;1.50;;
40286;SDS011;25998;46.604;13.610;2023-04-03T07:04:50;3.58;;;1.20;;
40286;SDS011;25998;46.604;13.610;2023-04-03T07:08:01;1.45;;;1.00;;
40286;SDS011;25998;46.604;13.610;2023-04-03T07:11:12;2.55;;;1.40;;
40286;SDS011;25998;46.604;13.610;2023-04-03T07:14:23;3.70;;;1.38;;
40286;SDS011;25998;46.604;13.610;2023-04-03T07:17:34;2.30;;;1.40;;
40286;SDS011;25998;46.604;13.610;2023-04-03T07:20:45;6.90;;;1.35;;
40286;SDS011;25998;46.604;13.610;2023-04-03T07:23:56;6.28;;;2.00;;
40286;SDS011;25998;46.604;13.610;2023-04-03T07:27:07;2.35;;;1.50;;
40286;SDS011;25998;46.604;13.610;2023-04-03T07:30:18;3.95;;;1.30;;
40286;SDS011;25998;46.604;13.610;2023-04-03T07:33:29;2.50;;;1.67;;
40286;SDS011;25998;46.604;13.610;2023-04-03T07:36:41;3.08;;;1.50;;
40286;SDS011;25998;46.604;13.610;2023-04-03T07:39:51;2.90;;;1.70;;
40286;SDS011;25998;46.604;13.610;2023-04-03T07:43:03;2.67;;;1.60;;
40286;SDS011;25998;46.604;13.610;2023-04-03T07:46:15;2.20;;;1.20;;
40286;SDS011;25998;46.604;13.610;2023-04-03T07:49:27;3.05;;;1.40;;
40286;SDS011;25998;46.604;13.610;2023-04-03T07:52:38;1.75;;;1.15;;
40286;SDS011;25998;46.604;13.610;2023-04-03T07:55:49;1.98;;;1.27;;
40286;SDS011;25998;46.604;13.610;2023-04-03T07:59:01;3.05;;;1.60;;
40286;SDS011;25998;46.604;13.610;2023-04-03T08:02:13;2.90;;;1.63;;
40286;SDS011;25998;46.604;13.610;2023-04-03T08:05:23;2.50;;;1.50;;
40286;SDS011;25998;46.604;13.610;2023-04-03T08:08:35;2.05;;;1.23;;
40286;SDS011;25998;46.604;13.610;2023-04-03T08:11:46;3.00;;;1.55;;
40286;SDS011;25998;46.604;13.610;2023-04-03T08:14:57;2.90;;;1.50;;
40286;SDS011;25998;46.604;13.610;2023-04-03T08:18:11;3.10;;;1.67;;
40286;SDS011;25998;46.604;13.610;2023-04-03T08:21:22;1.65;;;1.23;;
40286;SDS011;25998;46.604;13.610;2023-04-03T08:24:33;2.35;;;1.33;;
40286;SDS011;25998;46.604;13.610;2023-04-03T08:27:44;2.67;;;1.50;;
40286;SDS011;25998;46.604;13.610;2023-04-03T08:30:55;1.90;;;1.23;;
40286;SDS011;25998;46.604;13.610;2023-04-03T08:34:06;1.90;;;1.23;;
40286;SDS011;25998;46.604;13.610;2023-04-03T08:37:16;2.35;;;1.52;;
40286;SDS011;25998;46.604;13.610;2023-04-03T08:40:27;2.10;;;1.30;;
40286;SDS011;25998;46.604;13.610;2023-04-03T08:47:23;2.83;;;1.50;;
40286;SDS011;25998;46.604;13.610;2023-04-03T08:50:39;1.92;;;1.23;;
40286;SDS011;25998;46.604;13.610;2023-04-03T08:54:03;3.75;;;1.30;;
40286;SDS011;25998;46.604;13.610;2023-04-03T08:57:28;2.05;;;1.30;;
40286;SDS011;25998;46.604;13.610;2023-04-03T09:04:14;3.45;;;1.58;;
40286;SDS011;25998;46.604;13.610;2023-04-03T09:07:34;2.90;;;1.50;;
40286;SDS011;25998;46.604;13.610;2023-04-03T09:10:53;2.60;;;1.33;;
40286;SDS011;25998;46.604;13.610;2023-04-03T09:17:36;1.98;;;1.27;;
40286;SDS011;25998;46.604;13.610;2023-04-03T09:24:26;2.13;;;1.52;;
40286;SDS011;25998;46.604;13.610;2023-04-03T09:27:38;2.00;;;1.40;;
40286;SDS011;25998;46.604;13.610;2023-04-03T09:30:49;2.42;;;1.35;;
40286;SDS011;25998;46.604;13.610;2023-04-03T09:34:01;2.65;;;1.40;;
40286;SDS011;25998;46.604;13.610;2023-04-03T09:41:03;2.30;;;1.48;;
40286;SDS011;25998;46.604;13.610;2023-04-03T09:44:21;3.72;;;1.45;;
40286;SDS011;25998;46.604;13.610;2023-04-03T09:47:35;2.35;;;1.35;;
40286;SDS011;25998;46.604;13.610;2023-04-03T09:54:00;3.15;;;1.40;;
40286;SDS011;25998;46.604;13.610;2023-04-03T09:57:34;2.60;;;1.50;;
40286;SDS011;25998;46.604;13.610;2023-04-03T10:00:44;2.15;;;1.40;;
40286;SDS011;25998;46.604;13.610;2023-04-03T10:07:32;2.03;;;1.25;;
40286;SDS011;25998;46.604;13.610;2023-04-03T10:10:46;2.10;;;1.33;;
40286;SDS011;25998;46.604;13.610;2023-04-03T10:13:59;2.03;;;1.20;;
40286;SDS011;25998;46.604;13.610;2023-04-03T10:20:45;2.53;;;1.30;;
40286;SDS011;25998;46.604;13.610;2023-04-03T10:24:13;2.10;;;1.52;;
40286;SDS011;25998;46.604;13.610;2023-04-03T10:27:40;1.85;;;1.13;;
40286;SDS011;25998;46.604;13.610;2023-04-03T10:44:36;2.20;;;1.20;;
40286;SDS011;25998;46.604;13.610;2023-04-03T10:48:19;1.70;;;1.10;;
40286;SDS011;25998;46.604;13.610;2023-04-03T10:52:02;2.00;;;1.10;;
40286;SDS011;25998;46.604;13.610;2023-04-03T10:55:35;1.65;;;1.23;;
40286;SDS011;25998;46.604;13.610;2023-04-03T11:02:57;2.60;;;1.30;;
40286;SDS011;25998;46.604;13.610;2023-04-03T11:06:12;2.22;;;1.40;;
40286;SDS011;25998;46.604;13.610;2023-04-03T11:09:26;2.65;;;1.20;;
40286;SDS011;25998;46.604;13.610;2023-04-03T11:12:51;1.70;;;1.30;;
40286;SDS011;25998;46.604;13.610;2023-04-03T11:16:08;2.20;;;1.23;;
40286;SDS011;25998;46.604;13.610;2023-04-03T11:19:31;2.35;;;1.38;;
40286;SDS011;25998;46.604;13.610;2023-04-03T11:22:48;1.98;;;1.20;;
40286;SDS011;25998;46.604;13.610;2023-04-03T11:26:27;1.45;;;0.98;;
40286;SDS011;25998;46.604;13.610;2023-04-03T11:29:42;2.05;;;1.30;;
40286;SDS011;25998;46.604;13.610;2023-04-03T11:32:59;1.80;;;1.25;;
40286;SDS011;25998;46.604;13.610;2023-04-03T11:36:19;1.40;;;1.08;;
40286;SDS011;25998;46.604;13.610;2023-04-03T11:39:37;2.13;;;1.25;;
40286;SDS011;25998;46.604;13.610;2023-04-03T11:42:52;3.05;;;1.30;;
40286;SDS011;25998;46.604;13.610;2023-04-03T11:46:09;3.33;;;1.20;;
40286;SDS011;25998;46.604;13.610;2023-04-03T11:59:37;1.95;;;1.02;;
40286;SDS011;25998;46.604;13.610;2023-04-03T12:02:48;3.47;;;1.00;;
40286;SDS011;25998;46.604;13.610;2023-04-03T12:09:28;1.40;;;0.90;;
40286;SDS011;25998;46.604;13.610;2023-04-03T12:12:55;1.90;;;1.10;;
40286;SDS011;25998;46.604;13.610;2023-04-03T12:16:22;1.80;;;1.20;;
40286;SDS011;25998;46.604;13.610;2023-04-03T12:19:36;3.42;;;1.20;;
40286;SDS011;25998;46.604;13.610;2023-04-03T12:30:21;1.40;;;1.10;;
40286;SDS011;25998;46.604;13.610;2023-04-03T12:37:09;1.50;;;1.00;;
40286;SDS011;25998;46.604;13.610;2023-04-03T12:47:33;1.58;;;1.00;;
40286;SDS011;25998;46.604;13.610;2023-04-03T12:50:48;2.72;;;1.35;;
40286;SDS011;25998;46.604;13.610;2023-04-03T12:54:01;1.73;;;1.10;;
40286;SDS011;25998;46.604;13.610;2023-04-03T12:57:27;1.50;;;1.10;;
40286;SDS011;25998;46.604;13.610;2023-04-03T13:00:38;3.15;;;1.27;;
40286;SDS011;25998;46.604;13.610;2023-04-03T13:03:54;2.60;;;0.93;;
40286;SDS011;25998;46.604;13.610;2023-04-03T13:07:17;3.00;;;1.23;;
40286;SDS011;25998;46.604;13.610;2023-04-03T13:10:50;2.85;;;1.15;;
40286;SDS011;25998;46.604;13.610;2023-04-03T13:14:04;1.70;;;1.10;;
40286;SDS011;25998;46.604;13.610;2023-04-03T13:17:25;3.55;;;1.15;;
40286;SDS011;25998;46.604;13.610;2023-04-03T13:20:37;4.53;;;1.48;;
40286;SDS011;25998;46.604;13.610;2023-04-03T13:23:49;1.73;;;1.05;;
40286;SDS011;25998;46.604;13.610;2023-04-03T13:27:03;2.35;;;1.10;;
40286;SDS011;25998;46.604;13.610;2023-04-03T13:30:18;2.22;;;1.35;;
40286;SDS011;25998;46.604;13.610;2023-04-03T13:33:57;1.98;;;1.13;;
40286;SDS011;25998;46.604;13.610;2023-04-03T13:40:56;2.35;;;1.25;;
40286;SDS011;25998;46.604;13.610;2023-04-03T13:47:40;3.50;;;1.75;;
40286;SDS011;25998;46.604;13.610;2023-04-03T13:50:58;1.98;;;1.20;;
40286;SDS011;25998;46.604;13.610;2023-04-03T13:54:19;2.08;;;1.30;;
40286;SDS011;25998;46.604;13.610;2023-04-03T13:57:34;1.20;;;0.95;;
40286;SDS011;25998;46.604;13.610;2023-04-03T14:00:47;3.13;;;1.20;;
40286;SDS011;25998;46.604;13.610;2023-04-03T14:04:01;1.48;;;1.10;;
40286;SDS011;25998;46.604;13.610;2023-04-03T14:07:29;3.25;;;1.33;;
40286;SDS011;25998;46.604;13.610;2023-04-03T14:10:41;2.80;;;1.58;;
40286;SDS011;25998;46.604;13.610;2023-04-03T14:13:52;3.15;;;1.23;;
40286;SDS011;25998;46.604;13.610;2023-04-03T14:17:10;2.05;;;1.30;;
40286;SDS011;25998;46.604;13.610;2023-04-03T14:20:26;2.35;;;1.23;;
40286;SDS011;25998;46.604;13.610;2023-04-03T14:23:38;2.03;;;1.30;;
40286;SDS011;25998;46.604;13.610;2023-04-03T14:26:50;4.93;;;1.50;;
40286;SDS011;25998;46.604;13.610;2023-04-03T14:30:03;2.53;;;1.27;;
40286;SDS011;25998;46.604;13.610;2023-04-03T14:33:18;4.38;;;1.67;;
40286;SDS011;25998;46.604;13.610;2023-04-03T14:36:31;4.00;;;1.50;;
40286;SDS011;25998;46.604;13.610;2023-04-03T14:39:43;1.90;;;1.30;;
40286;SDS011;25998;46.604;13.610;2023-04-03T14:42:54;2.00;;;1.25;;
40286;SDS011;25998;46.604;13.610;2023-04-03T14:46:26;2.95;;;1.30;;
40286;SDS011;25998;46.604;13.610;2023-04-03T14:49:41;2.50;;;1.20;;
40286;SDS011;25998;46.604;13.610;2023-04-03T14:52:54;1.88;;;1.17;;
40286;SDS011;25998;46.604;13.610;2023-04-03T14:56:11;2.08;;;1.35;;
40286;SDS011;25998;46.604;13.610;2023-04-03T14:59:22;1.55;;;1.10;;
40286;SDS011;25998;46.604;13.610;2023-04-03T15:02:34;1.27;;;0.90;;
40286;SDS011;25998;46.604;13.610;2023-04-03T15:05:47;1.63;;;1.02;;
40286;SDS011;25998;46.604;13.610;2023-04-03T15:08:59;1.40;;;1.00;;
40286;SDS011;25998;46.604;13.610;2023-04-03T15:12:10;1.15;;;0.88;;
40286;SDS011;25998;46.604;13.610;2023-04-03T15:15:22;1.48;;;1.00;;
40286;SDS011;25998;46.604;13.610;2023-04-03T15:18:35;2.83;;;1.30;;
40286;SDS011;25998;46.604;13.610;2023-04-03T15:21:48;2.10;;;1.17;;
40286;SDS011;25998;46.604;13.610;2023-04-03T15:24:58;1.70;;;1.13;;
40286;SDS011;25998;46.604;13.610;2023-04-03T15:28:20;1.77;;;1.10;;
40286;SDS011;25998;46.604;13.610;2023-04-03T15:31:38;2.13;;;1.13;;
40286;SDS011;25998;46.604;13.610;2023-04-03T15:34:49;1.40;;;0.95;;
40286;SDS011;25998;46.604;13.610;2023-04-03T15:38:00;1.70;;;1.02;;
40286;SDS011;25998;46.604;13.610;2023-04-03T15:41:11;1.23;;;0.93;;
40286;SDS011;25998;46.604;13.610;2023-04-03T15:44:22;3.05;;;1.10;;
40286;SDS011;25998;46.604;13.610;2023-04-03T15:47:33;1.80;;;1.20;;
40286;SDS011;25998;46.604;13.610;2023-04-03T15:50:44;1.75;;;1.13;;
40286;SDS011;25998;46.604;13.610;2023-04-03T15:53:55;2.20;;;1.00;;
40286;SDS011;25998;46.604;13.610;2023-04-03T15:57:06;1.38;;;0.90;;
40286;SDS011;25998;46.604;13.610;2023-04-03T16:00:17;1.67;;;1.15;;
40286;SDS011;25998;46.604;13.610;2023-04-03T16:03:28;1.58;;;1.10;;
40286;SDS011;25998;46.604;13.610;2023-04-03T16:06:39;1.55;;;1.00;;
40286;SDS011;25998;46.604;13.610;2023-04-03T16:09:50;2.00;;;1.10;;
40286;SDS011;25998;46.604;13.610;2023-04-03T16:13:02;1.17;;;0.90;;
40286;SDS011;25998;46.604;13.610;2023-04-03T16:16:14;1.77;;;1.00;;
40286;SDS011;25998;46.604;13.610;2023-04-03T16:19:25;2.38;;;0.90;;
40286;SDS011;25998;46.604;13.610;2023-04-03T16:22:36;2.40;;;0.93;;
40286;SDS011;25998;46.604;13.610;2023-04-03T16:25:47;3.78;;;2.80;;
40286;SDS011;25998;46.604;13.610;2023-04-03T16:28:59;1.52;;;1.05;;
40286;SDS011;25998;46.604;13.610;2023-04-03T16:32:10;2.97;;;1.90;;
40286;SDS011;25998;46.604;13.610;2023-04-03T16:35:22;1.95;;;1.23;;
40286;SDS011;25998;46.604;13.610;2023-04-03T16:38:33;3.90;;;1.40;;
40286;SDS011;25998;46.604;13.610;2023-04-03T16:41:45;3.30;;;1.20;;
40286;SDS011;25998;46.604;13.610;2023-04-03T16:44:56;1.40;;;1.00;;
40286;SDS011;25998;46.604;13.610;2023-04-03T16:48:08;2.22;;;1.10;;
40286;SDS011;25998;46.604;13.610;2023-04-03T16:51:20;2.47;;;1.20;;
40286;SDS011;25998;46.604;13.610;2023-04-03T16:54:31;1.83;;;1.10;;
40286;SDS011;25998;46.604;13.610;2023-04-03T16:57:42;2.65;;;1.20;;
40286;SDS011;25998;46.604;13.610;2023-04-03T17:00:53;1.60;;;1.10;;
40286;SDS011;25998;46.604;13.610;2023-04-03T17:04:05;2.15;;;1.50;;
40286;SDS011;25998;46.604;13.610;2023-04-03T17:07:15;2.00;;;1.00;;
40286;SDS011;25998;46.604;13.610;2023-04-03T17:10:27;1.92;;;1.15;;
40286;SDS011;25998;46.604;13.610;2023-04-03T17:13:38;2.30;;;1.30;;
40286;SDS011;25998;46.604;13.610;2023-04-03T17:16:49;2.42;;;1.27;;
40286;SDS011;25998;46.604;13.610;2023-04-03T17:20:00;1.38;;;0.95;;
40286;SDS011;25998;46.604;13.610;2023-04-03T17:23:12;1.55;;;0.88;;
40286;SDS011;25998;46.604;13.610;2023-04-03T17:26:23;2.55;;;1.20;;
40286;SDS011;25998;46.604;13.610;2023-04-03T17:29:35;1.80;;;1.02;;
40286;SDS011;25998;46.604;13.610;2023-04-03T17:32:46;1.40;;;0.90;;
40286;SDS011;25998;46.604;13.610;2023-04-03T17:35:57;1.60;;;1.08;;
40286;SDS011;25998;46.604;13.610;2023-04-03T17:39:10;1.60;;;1.00;;
40286;SDS011;25998;46.604;13.610;2023-04-03T17:42:21;2.58;;;1.10;;
40286;SDS011;25998;46.604;13.610;2023-04-03T17:45:32;1.40;;;1.00;;
40286;SDS011;25998;46.604;13.610;2023-04-03T17:48:43;4.18;;;1.00;;
40286;SDS011;25998;46.604;13.610;2023-04-03T17:51:54;3.60;;;1.05;;
40286;SDS011;25998;46.604;13.610;2023-04-03T17:55:05;2.35;;;1.02;;
40286;SDS011;25998;46.604;13.610;2023-04-03T17:58:16;1.73;;;1.08;;
40286;SDS011;25998;46.604;13.610;2023-04-03T18:01:33;2.67;;;1.10;;
40286;SDS011;25998;46.604;13.610;2023-04-03T18:04:45;1.70;;;1.10;;
40286;SDS011;25998;46.604;13.610;2023-04-03T18:07:56;1.92;;;1.00;;
40286;SDS011;25998;46.604;13.610;2023-04-03T18:11:08;1.60;;;1.00;;
40286;SDS011;25998;46.604;13.610;2023-04-03T18:14:20;2.65;;;1.35;;
40286;SDS011;25998;46.604;13.610;2023-04-03T18:17:34;3.95;;;1.10;;
40286;SDS011;25998;46.604;13.610;2023-04-03T18:20:45;3.47;;;1.20;;
40286;SDS011;25998;46.604;13.610;2023-04-03T18:23:56;1.52;;;1.00;;
40286;SDS011;25998;46.604;13.610;2023-04-03T18:27:10;2.20;;;1.15;;
40286;SDS011;25998;46.604;13.610;2023-04-03T18:30:23;2.33;;;1.10;;
40286;SDS011;25998;46.604;13.610;2023-04-03T18:33:35;2.50;;;1.10;;
40286;SDS011;25998;46.604;13.610;2023-04-03T18:36:46;1.65;;;1.10;;
40286;SDS011;25998;46.604;13.610;2023-04-03T18:39:58;2.80;;;1.15;;
40286;SDS011;25998;46.604;13.610;2023-04-03T18:43:09;2.65;;;1.20;;
40286;SDS011;25998;46.604;13.610;2023-04-03T18:46:21;1.38;;;0.90;;
40286;SDS011;25998;46.604;13.610;2023-04-03T18:49:32;2.35;;;1.13;;
40286;SDS011;25998;46.604;13.610;2023-04-03T18:52:45;1.48;;;0.95;;
40286;SDS011;25998;46.604;13.610;2023-04-03T18:55:59;2.08;;;1.02;;
40286;SDS011;25998;46.604;13.610;2023-04-03T18:59:10;2.70;;;1.08;;
40286;SDS011;25998;46.604;13.610;2023-04-03T19:02:21;1.90;;;1.10;;
40286;SDS011;25998;46.604;13.610;2023-04-03T19:05:35;2.78;;;1.20;;
40286;SDS011;25998;46.604;13.610;2023-04-03T19:08:47;2.25;;;1.40;;
40286;SDS011;25998;46.604;13.610;2023-04-03T19:12:00;3.65;;;1.20;;
40286;SDS011;25998;46.604;13.610;2023-04-03T19:15:14;2.22;;;1.30;;
40286;SDS011;25998;46.604;13.610;2023-04-03T19:18:26;2.40;;;1.20;;
40286;SDS011;25998;46.604;13.610;2023-04-03T19:21:37;5.28;;;1.50;;
40286;SDS011;25998;46.604;13.610;2023-04-03T19:24:50;4.32;;;1.60;;
40286;SDS011;25998;46.604;13.610;2023-04-03T19:28:00;3.40;;;1.52;;
40286;SDS011;25998;46.604;13.610;2023-04-03T19:31:12;5.60;;;2.85;;
40286;SDS011;25998;46.604;13.610;2023-04-03T19:34:25;6.25;;;3.28;;
40286;SDS011;25998;46.604;13.610;2023-04-03T19:37:35;3.47;;;1.77;;
40286;SDS011;25998;46.604;13.610;2023-04-03T19:40:46;2.97;;;2.05;;
40286;SDS011;25998;46.604;13.610;2023-04-03T19:43:57;2.97;;;1.65;;
40286;SDS011;25998;46.604;13.610;2023-04-03T19:47:08;1.98;;;1.30;;
40286;SDS011;25998;46.604;13.610;2023-04-03T19:50:19;2.15;;;1.52;;
40286;SDS011;25998;46.604;13.610;2023-04-03T19:53:30;3.05;;;1.70;;
40286;SDS011;25998;46.604;13.610;2023-04-03T19:56:41;2.95;;;1.40;;
40286;SDS011;25998;46.604;13.610;2023-04-03T19:59:52;2.72;;;1.40;;
40286;SDS011;25998;46.604;13.610;2023-04-03T20:03:03;2.83;;;1.70;;
40286;SDS011;25998;46.604;13.610;2023-04-03T20:06:15;2.58;;;1.30;;
40286;SDS011;25998;46.604;13.610;2023-04-03T20:09:26;2.88;;;1.50;;
40286;SDS011;25998;46.604;13.610;2023-04-03T20:12:36;3.10;;;1.48;;
40286;SDS011;25998;46.604;13.610;2023-04-03T20:15:48;3.33;;;1.38;;
40286;SDS011;25998;46.604;13.610;2023-04-03T20:18:59;2.53;;;1.58;;
40286;SDS011;25998;46.604;13.610;2023-04-03T20:22:11;2.92;;;1.58;;
40286;SDS011;25998;46.604;13.610;2023-04-03T20:25:22;3.92;;;1.63;;
40286;SDS011;25998;46.604;13.610;2023-04-03T20:28:33;3.20;;;1.73;;
40286;SDS011;25998;46.604;13.610;2023-04-03T20:31:44;3.28;;;1.50;;
40286;SDS011;25998;46.604;13.610;2023-04-03T20:34:55;3.03;;;1.58;;
40286;SDS011;25998;46.604;13.610;2023-04-03T20:38:07;3.40;;;1.60;;